sensor_id;sensor_type;location;lat;lon;timestamp;P1;durP1;ratioP1;P2;durP2;ratioP2
2201;SDS011;1107;48.654;9.250;2023-11-21T00:02:20;11.80;;;3.00;;
2201;SDS011;1107;48.654;9.250;2023-11-21T00:04:47;4.10;;;3.10;;
2201;SDS011;1107;48.654;9.250;2023-11-21T00:07:16;11.77;;;2.77;;
2201;SDS011;1107;48.654;9.250;2023-11-21T00:09:43;6.57;;;2.80;;
2201;SDS011;1107;48.654;9.250;2023-11-21T00:12:10;2.90;;;2.70;;
2201;SDS011;1107;48.654;9.250;2023-11-21T00:14:37;4.30;;;2.60;;
2201;SDS011;1107;48.654;9.250;2023-11-21T00:17:04;5.20;;;2.93;;
2201;SDS011;1107;48.654;9.250;2023-11-21T00:19:31;4.90;;;3.10;;
2201;SDS011;1107;48.654;9.250;2023-11-21T00:21:58;4.10;;;3.10;;
2201;SDS011;1107;48.654;9.250;2023-11-21T00:24:27;4.90;;;3.07;;
2201;SDS011;1107;48.654;9.250;2023-11-21T00:26:53;5.00;;;3.50;;
2201;SDS011;1107;48.654;9.250;2023-11-21T00:29:20;5.93;;;2.72;;
2201;SDS011;1107;48.654;9.250;2023-11-21T00:31:47;9.70;;;2.80;;
2201;SDS011;1107;48.654;9.250;2023-11-21T00:34:14;7.50;;;3.57;;
2201;SDS011;1107;48.654;9.250;2023-11-21T00:36:41;6.50;;;3.70;;
2201;SDS011;1107;48.654;9.250;2023-11-21T00:39:08;5.30;;;3.87;;
2201;SDS011;1107;48.654;9.250;2023-11-21T00:41:38;4.70;;;3.43;;
2201;SDS011;1107;48.654;9.250;2023-11-21T00:44:05;4.00;;;3.70;;
2201;SDS011;1107;48.654;9.250;2023-11-21T00:46:32;4.30;;;3.90;;
2201;SDS011;1107;48.654;9.250;2023-11-21T00:48:59;8.53;;;4.27;;
2201;SDS011;1107;48.654;9.250;2023-11-21T00:51:27;7.50;;;3.90;;
2201;SDS011;1107;48.654;9.250;2023-11-21T00:53:54;4.32;;;3.92;;
2201;SDS011;1107;48.654;9.250;2023-11-21T00:56:21;6.65;;;3.65;;
2201;SDS011;1107;48.654;9.250;2023-11-21T00:58:49;7.88;;;4.00;;
2201;SDS011;1107;48.654;9.250;2023-11-21T01:01:17;4.47;;;3.33;;
2201;SDS011;1107;48.654;9.250;2023-11-21T01:03:45;5.32;;;3.65;;
2201;SDS011;1107;48.654;9.250;2023-11-21T01:06:13;10.87;;;3.73;;
2201;SDS011;1107;48.654;9.250;2023-11-21T01:08:40;3.67;;;3.37;;
2201;SDS011;1107;48.654;9.250;2023-11-21T01:11:07;3.50;;;3.20;;
2201;SDS011;1107;48.654;9.250;2023-11-21T01:13:37;6.37;;;3.47;;
2201;SDS011;1107;48.654;9.250;2023-11-21T01:16:06;6.70;;;3.60;;
2201;SDS011;1107;48.654;9.250;2023-11-21T01:18:34;5.13;;;2.95;;
2201;SDS011;1107;48.654;9.250;2023-11-21T01:21:01;3.50;;;3.20;;
2201;SDS011;1107;48.654;9.250;2023-11-21T01:23:28;3.22;;;2.30;;
2201;SDS011;1107;48.654;9.250;2023-11-21T01:25:55;4.10;;;2.33;;
2201;SDS011;1107;48.654;9.250;2023-11-21T01:28:23;2.67;;;2.47;;
2201;SDS011;1107;48.654;9.250;2023-11-21T01:30:50;2.37;;;2.17;;
2201;SDS011;1107;48.654;9.250;2023-11-21T01:33:18;3.05;;;1.73;;
2201;SDS011;1107;48.654;9.250;2023-11-21T01:35:45;6.35;;;1.80;;
2201;SDS011;1107;48.654;9.250;2023-11-21T01:38:12;4.60;;;1.77;;
2201;SDS011;1107;48.654;9.250;2023-11-21T01:40:39;2.57;;;2.37;;
2201;SDS011;1107;48.654;9.250;2023-11-21T01:43:06;2.77;;;1.50;;
2201;SDS011;1107;48.654;9.250;2023-11-21T01:45:33;2.67;;;2.10;;
2201;SDS011;1107;48.654;9.250;2023-11-21T01:48:00;5.97;;;1.90;;
2201;SDS011;1107;48.654;9.250;2023-11-21T01:50:29;2.10;;;1.73;;
2201;SDS011;1107;48.654;9.250;2023-11-21T01:52:57;8.27;;;1.80;;
2201;SDS011;1107;48.654;9.250;2023-11-21T01:55:24;1.90;;;1.65;;
2201;SDS011;1107;48.654;9.250;2023-11-21T01:57:52;4.30;;;1.75;;
2201;SDS011;1107;48.654;9.250;2023-11-21T02:00:19;2.00;;;1.60;;
2201;SDS011;1107;48.654;9.250;2023-11-21T02:02:46;3.55;;;1.73;;
2201;SDS011;1107;48.654;9.250;2023-11-21T02:05:13;2.05;;;1.70;;
2201;SDS011;1107;48.654;9.250;2023-11-21T02:07:44;2.42;;;1.45;;
2201;SDS011;1107;48.654;9.250;2023-11-21T02:10:13;2.07;;;1.20;;
2201;SDS011;1107;48.654;9.250;2023-11-21T02:12:40;1.90;;;1.40;;
2201;SDS011;1107;48.654;9.250;2023-11-21T02:15:08;2.50;;;1.70;;
2201;SDS011;1107;48.654;9.250;2023-11-21T02:17:40;1.80;;;1.47;;
2201;SDS011;1107;48.654;9.250;2023-11-21T02:20:09;3.00;;;1.70;;
2201;SDS011;1107;48.654;9.250;2023-11-21T02:22:40;3.00;;;1.80;;
2201;SDS011;1107;48.654;9.250;2023-11-21T02:25:09;2.87;;;1.40;;
2201;SDS011;1107;48.654;9.250;2023-11-21T02:27:36;3.45;;;1.27;;
2201;SDS011;1107;48.654;9.250;2023-11-21T02:30:04;2.57;;;1.30;;
2201;SDS011;1107;48.654;9.250;2023-11-21T02:32:33;4.50;;;1.50;;
2201;SDS011;1107;48.654;9.250;2023-11-21T02:35:00;5.75;;;1.60;;
2201;SDS011;1107;48.654;9.250;2023-11-21T02:37:32;1.90;;;1.60;;
2201;SDS011;1107;48.654;9.250;2023-11-21T02:40:00;4.40;;;1.65;;
2201;SDS011;1107;48.654;9.250;2023-11-21T02:42:30;2.88;;;1.20;;
2201;SDS011;1107;48.654;9.250;2023-11-21T02:44:58;2.95;;;1.42;;
2201;SDS011;1107;48.654;9.250;2023-11-21T02:47:25;3.17;;;1.50;;
2201;SDS011;1107;48.654;9.250;2023-11-21T02:49:52;4.60;;;1.67;;
2201;SDS011;1107;48.654;9.250;2023-11-21T02:52:19;3.20;;;1.53;;
2201;SDS011;1107;48.654;9.250;2023-11-21T02:54:46;2.05;;;1.27;;
2201;SDS011;1107;48.654;9.250;2023-11-21T02:57:13;4.47;;;1.60;;
2201;SDS011;1107;48.654;9.250;2023-11-21T02:59:41;1.60;;;1.20;;
2201;SDS011;1107;48.654;9.250;2023-11-21T03:02:08;2.53;;;1.20;;
2201;SDS011;1107;48.654;9.250;2023-11-21T03:04:35;5.10;;;1.37;;
2201;SDS011;1107;48.654;9.250;2023-11-21T03:07:02;16.60;;;2.05;;
2201;SDS011;1107;48.654;9.250;2023-11-21T03:09:30;2.80;;;1.15;;
2201;SDS011;1107;48.654;9.250;2023-11-21T03:11:57;1.67;;;1.00;;
2201;SDS011;1107;48.654;9.250;2023-11-21T03:14:24;1.75;;;1.33;;
2201;SDS011;1107;48.654;9.250;2023-11-21T03:16:52;1.53;;;1.00;;
2201;SDS011;1107;48.654;9.250;2023-11-21T03:19:19;2.07;;;1.30;;
2201;SDS011;1107;48.654;9.250;2023-11-21T03:21:46;2.07;;;1.10;;
2201;SDS011;1107;48.654;9.250;2023-11-21T03:24:13;2.97;;;1.13;;
2201;SDS011;1107;48.654;9.250;2023-11-21T03:26:44;1.95;;;1.40;;
2201;SDS011;1107;48.654;9.250;2023-11-21T03:29:11;3.08;;;1.33;;
2201;SDS011;1107;48.654;9.250;2023-11-21T03:31:39;1.50;;;1.00;;
2201;SDS011;1107;48.654;9.250;2023-11-21T03:34:09;2.38;;;1.20;;
2201;SDS011;1107;48.654;9.250;2023-11-21T03:36:40;3.05;;;1.38;;
2201;SDS011;1107;48.654;9.250;2023-11-21T03:39:08;2.95;;;1.02;;
2201;SDS011;1107;48.654;9.250;2023-11-21T03:41:34;2.70;;;1.20;;
2201;SDS011;1107;48.654;9.250;2023-11-21T03:44:01;1.40;;;0.98;;
2201;SDS011;1107;48.654;9.250;2023-11-21T03:46:29;2.67;;;1.55;;
2201;SDS011;1107;48.654;9.250;2023-11-21T03:48:55;2.75;;;0.98;;
2201;SDS011;1107;48.654;9.250;2023-11-21T03:51:24;1.70;;;1.30;;
2201;SDS011;1107;48.654;9.250;2023-11-21T03:53:51;2.58;;;0.90;;
2201;SDS011;1107;48.654;9.250;2023-11-21T03:56:18;1.42;;;0.70;;
2201;SDS011;1107;48.654;9.250;2023-11-21T03:58:46;1.70;;;0.85;;
2201;SDS011;1107;48.654;9.250;2023-11-21T04:01:18;1.67;;;1.00;;
2201;SDS011;1107;48.654;9.250;2023-11-21T04:03:47;1.52;;;0.80;;
2201;SDS011;1107;48.654;9.250;2023-11-21T04:06:15;1.50;;;0.93;;
2201;SDS011;1107;48.654;9.250;2023-11-21T04:08:43;1.40;;;0.80;;
2201;SDS011;1107;48.654;9.250;2023-11-21T04:11:10;1.20;;;0.60;;
2201;SDS011;1107;48.654;9.250;2023-11-21T04:13:38;1.57;;;0.70;;
2201;SDS011;1107;48.654;9.250;2023-11-21T04:16:05;1.75;;;0.65;;
2201;SDS011;1107;48.654;9.250;2023-11-21T04:18:33;1.40;;;0.60;;
2201;SDS011;1107;48.654;9.250;2023-11-21T04:21:00;1.60;;;1.05;;
2201;SDS011;1107;48.654;9.250;2023-11-21T04:23:28;1.52;;;1.00;;
2201;SDS011;1107;48.654;9.250;2023-11-21T04:25:58;4.30;;;0.90;;
2201;SDS011;1107;48.654;9.250;2023-11-21T04:28:25;1.40;;;0.70;;
2201;SDS011;1107;48.654;9.250;2023-11-21T04:30:52;4.70;;;0.80;;
2201;SDS011;1107;48.654;9.250;2023-11-21T04:33:19;1.42;;;0.85;;
2201;SDS011;1107;48.654;9.250;2023-11-21T04:35:46;1.40;;;0.73;;
2201;SDS011;1107;48.654;9.250;2023-11-21T04:38:13;1.88;;;1.17;;
2201;SDS011;1107;48.654;9.250;2023-11-21T04:40:40;1.27;;;0.60;;
2201;SDS011;1107;48.654;9.250;2023-11-21T04:43:09;1.25;;;0.60;;
2201;SDS011;1107;48.654;9.250;2023-11-21T04:45:35;1.27;;;0.70;;
2201;SDS011;1107;48.654;9.250;2023-11-21T04:48:02;2.10;;;0.93;;
2201;SDS011;1107;48.654;9.250;2023-11-21T04:50:30;1.30;;;0.60;;
2201;SDS011;1107;48.654;9.250;2023-11-21T04:52:57;1.70;;;0.70;;
2201;SDS011;1107;48.654;9.250;2023-11-21T04:55:24;2.95;;;0.60;;
2201;SDS011;1107;48.654;9.250;2023-11-21T04:57:53;1.35;;;0.60;;
2201;SDS011;1107;48.654;9.250;2023-11-21T05:00:21;1.20;;;0.60;;
2201;SDS011;1107;48.654;9.250;2023-11-21T05:02:49;1.38;;;0.70;;
2201;SDS011;1107;48.654;9.250;2023-11-21T05:05:16;1.40;;;0.60;;
2201;SDS011;1107;48.654;9.250;2023-11-21T05:07:43;1.40;;;0.93;;
2201;SDS011;1107;48.654;9.250;2023-11-21T05:10:10;2.28;;;0.60;;
2201;SDS011;1107;48.654;9.250;2023-11-21T05:12:39;1.17;;;0.50;;
2201;SDS011;1107;48.654;9.250;2023-11-21T05:15:07;1.55;;;0.70;;
2201;SDS011;1107;48.654;9.250;2023-11-21T05:17:36;1.92;;;0.80;;
2201;SDS011;1107;48.654;9.250;2023-11-21T05:20:04;1.25;;;0.57;;
2201;SDS011;1107;48.654;9.250;2023-11-21T05:22:33;1.23;;;0.70;;
2201;SDS011;1107;48.654;9.250;2023-11-21T05:25:01;1.40;;;0.70;;
2201;SDS011;1107;48.654;9.250;2023-11-21T05:27:28;1.60;;;0.80;;
2201;SDS011;1107;48.654;9.250;2023-11-21T05:29:55;1.20;;;0.60;;
2201;SDS011;1107;48.654;9.250;2023-11-21T05:32:23;1.33;;;0.70;;
2201;SDS011;1107;48.654;9.250;2023-11-21T05:34:51;3.30;;;0.63;;
2201;SDS011;1107;48.654;9.250;2023-11-21T05:37:18;1.50;;;0.90;;
2201;SDS011;1107;48.654;9.250;2023-11-21T05:39:45;2.00;;;0.80;;
2201;SDS011;1107;48.654;9.250;2023-11-21T05:42:12;1.38;;;0.60;;
2201;SDS011;1107;48.654;9.250;2023-11-21T05:44:40;1.20;;;0.60;;
2201;SDS011;1107;48.654;9.250;2023-11-21T05:47:09;1.40;;;0.50;;
2201;SDS011;1107;48.654;9.250;2023-11-21T05:49:35;1.55;;;0.90;;
2201;SDS011;1107;48.654;9.250;2023-11-21T05:52:04;1.52;;;0.80;;
2201;SDS011;1107;48.654;9.250;2023-11-21T05:54:32;1.40;;;0.77;;
2201;SDS011;1107;48.654;9.250;2023-11-21T05:56:59;1.80;;;0.77;;
2201;SDS011;1107;48.654;9.250;2023-11-21T05:59:26;3.22;;;1.60;;
2201;SDS011;1107;48.654;9.250;2023-11-21T06:01:53;5.40;;;2.08;;
2201;SDS011;1107;48.654;9.250;2023-11-21T06:04:20;3.25;;;1.30;;
2201;SDS011;1107;48.654;9.250;2023-11-21T06:06:50;2.47;;;0.98;;
2201;SDS011;1107;48.654;9.250;2023-11-21T06:09:18;3.00;;;0.90;;
2201;SDS011;1107;48.654;9.250;2023-11-21T06:11:45;1.20;;;0.70;;
2201;SDS011;1107;48.654;9.250;2023-11-21T06:14:12;1.30;;;0.80;;
2201;SDS011;1107;48.654;9.250;2023-11-21T06:16:40;3.17;;;1.10;;
2201;SDS011;1107;48.654;9.250;2023-11-21T06:19:07;2.35;;;0.90;;
2201;SDS011;1107;48.654;9.250;2023-11-21T06:21:35;1.40;;;0.82;;
2201;SDS011;1107;48.654;9.250;2023-11-21T06:24:02;1.70;;;0.80;;
2201;SDS011;1107;48.654;9.250;2023-11-21T06:26:30;1.50;;;0.75;;
2201;SDS011;1107;48.654;9.250;2023-11-21T06:28:58;3.15;;;1.15;;
2201;SDS011;1107;48.654;9.250;2023-11-21T06:31:25;2.08;;;0.70;;
2201;SDS011;1107;48.654;9.250;2023-11-21T06:33:52;1.48;;;1.10;;
2201;SDS011;1107;48.654;9.250;2023-11-21T06:36:19;2.17;;;0.90;;
2201;SDS011;1107;48.654;9.250;2023-11-21T06:38:46;1.67;;;1.38;;
2201;SDS011;1107;48.654;9.250;2023-11-21T06:41:13;3.67;;;1.00;;
2201;SDS011;1107;48.654;9.250;2023-11-21T06:43:42;1.37;;;0.87;;
2201;SDS011;1107;48.654;9.250;2023-11-21T06:46:11;1.40;;;0.80;;
2201;SDS011;1107;48.654;9.250;2023-11-21T06:48:39;1.50;;;0.90;;
2201;SDS011;1107;48.654;9.250;2023-11-21T06:51:08;1.38;;;0.80;;
2201;SDS011;1107;48.654;9.250;2023-11-21T06:53:35;2.65;;;0.90;;
2201;SDS011;1107;48.654;9.250;2023-11-21T06:56:03;4.38;;;1.00;;
2201;SDS011;1107;48.654;9.250;2023-11-21T06:58:30;1.40;;;1.05;;
2201;SDS011;1107;48.654;9.250;2023-11-21T07:01:00;1.40;;;0.70;;
2201;SDS011;1107;48.654;9.250;2023-11-21T07:03:27;1.33;;;0.80;;
2201;SDS011;1107;48.654;9.250;2023-11-21T07:05:53;1.20;;;0.70;;
2201;SDS011;1107;48.654;9.250;2023-11-21T07:08:21;2.85;;;1.23;;
2201;SDS011;1107;48.654;9.250;2023-11-21T07:10:47;3.10;;;0.90;;
2201;SDS011;1107;48.654;9.250;2023-11-21T07:13:15;1.30;;;0.90;;
2201;SDS011;1107;48.654;9.250;2023-11-21T07:15:42;1.90;;;0.93;;
2201;SDS011;1107;48.654;9.250;2023-11-21T07:18:10;3.58;;;1.10;;
2201;SDS011;1107;48.654;9.250;2023-11-21T07:20:37;1.63;;;0.85;;
2201;SDS011;1107;48.654;9.250;2023-11-21T07:23:04;2.47;;;0.93;;
2201;SDS011;1107;48.654;9.250;2023-11-21T07:25:31;1.55;;;0.90;;
2201;SDS011;1107;48.654;9.250;2023-11-21T07:27:58;2.33;;;1.00;;
2201;SDS011;1107;48.654;9.250;2023-11-21T07:30:25;1.30;;;0.70;;
2201;SDS011;1107;48.654;9.250;2023-11-21T07:32:52;1.50;;;1.23;;
2201;SDS011;1107;48.654;9.250;2023-11-21T07:35:21;6.97;;;4.07;;
2201;SDS011;1107;48.654;9.250;2023-11-21T07:37:47;1.90;;;1.70;;
2201;SDS011;1107;48.654;9.250;2023-11-21T07:40:15;1.83;;;1.73;;
2201;SDS011;1107;48.654;9.250;2023-11-21T07:42:42;1.40;;;1.13;;
2201;SDS011;1107;48.654;9.250;2023-11-21T07:45:09;2.85;;;1.33;;
2201;SDS011;1107;48.654;9.250;2023-11-21T07:47:36;4.40;;;1.50;;
2201;SDS011;1107;48.654;9.250;2023-11-21T07:50:04;3.20;;;3.00;;
2201;SDS011;1107;48.654;9.250;2023-11-21T07:52:34;2.97;;;2.70;;
2201;SDS011;1107;48.654;9.250;2023-11-21T07:55:01;7.07;;;2.70;;
2201;SDS011;1107;48.654;9.250;2023-11-21T07:57:28;1.50;;;1.37;;
2201;SDS011;1107;48.654;9.250;2023-11-21T07:59:55;3.00;;;2.80;;
2201;SDS011;1107;48.654;9.250;2023-11-21T08:02:22;1.43;;;1.33;;
2201;SDS011;1107;48.654;9.250;2023-11-21T08:04:51;2.33;;;2.20;;
2201;SDS011;1107;48.654;9.250;2023-11-21T08:07:18;3.37;;;3.17;;
2201;SDS011;1107;48.654;9.250;2023-11-21T08:09:46;2.87;;;1.23;;
2201;SDS011;1107;48.654;9.250;2023-11-21T08:12:15;1.40;;;1.10;;
2201;SDS011;1107;48.654;9.250;2023-11-21T08:14:42;1.40;;;1.10;;
2201;SDS011;1107;48.654;9.250;2023-11-21T08:17:09;1.50;;;1.30;;
2201;SDS011;1107;48.654;9.250;2023-11-21T08:19:36;1.60;;;0.93;;
2201;SDS011;1107;48.654;9.250;2023-11-21T08:22:03;3.10;;;1.33;;
2201;SDS011;1107;48.654;9.250;2023-11-21T08:24:32;1.67;;;1.03;;
2201;SDS011;1107;48.654;9.250;2023-11-21T08:27:01;1.93;;;1.70;;
2201;SDS011;1107;48.654;9.250;2023-11-21T08:29:29;1.87;;;1.77;;
2201;SDS011;1107;48.654;9.250;2023-11-21T08:31:56;2.43;;;1.13;;
2201;SDS011;1107;48.654;9.250;2023-11-21T08:34:25;1.73;;;1.37;;
2201;SDS011;1107;48.654;9.250;2023-11-21T08:36:52;14.97;;;0.90;;
2201;SDS011;1107;48.654;9.250;2023-11-21T08:39:18;1.30;;;0.90;;
2201;SDS011;1107;48.654;9.250;2023-11-21T08:41:45;1.40;;;0.93;;
2201;SDS011;1107;48.654;9.250;2023-11-21T08:44:15;3.27;;;1.43;;
2201;SDS011;1107;48.654;9.250;2023-11-21T08:46:43;1.90;;;1.47;;
2201;SDS011;1107;48.654;9.250;2023-11-21T08:49:10;3.23;;;1.10;;
2201;SDS011;1107;48.654;9.250;2023-11-21T08:51:37;6.43;;;1.80;;
2201;SDS011;1107;48.654;9.250;2023-11-21T08:54:06;1.77;;;1.67;;
2201;SDS011;1107;48.654;9.250;2023-11-21T08:56:34;2.13;;;2.03;;
2201;SDS011;1107;48.654;9.250;2023-11-21T08:59:01;5.87;;;5.30;;
2201;SDS011;1107;48.654;9.250;2023-11-21T09:01:29;4.33;;;4.13;;
2201;SDS011;1107;48.654;9.250;2023-11-21T09:03:58;2.03;;;1.83;;
2201;SDS011;1107;48.654;9.250;2023-11-21T09:06:24;1.60;;;1.50;;
2201;SDS011;1107;48.654;9.250;2023-11-21T09:08:51;1.53;;;1.43;;
2201;SDS011;1107;48.654;9.250;2023-11-21T09:11:18;2.43;;;2.10;;
2201;SDS011;1107;48.654;9.250;2023-11-21T09:13:45;1.40;;;1.10;;
2201;SDS011;1107;48.654;9.250;2023-11-21T09:16:13;3.30;;;1.43;;
2201;SDS011;1107;48.654;9.250;2023-11-21T09:18:41;2.73;;;1.40;;
2201;SDS011;1107;48.654;9.250;2023-11-21T09:21:10;3.43;;;1.47;;
2201;SDS011;1107;48.654;9.250;2023-11-21T09:23:37;1.37;;;1.17;;
2201;SDS011;1107;48.654;9.250;2023-11-21T09:26:04;1.50;;;1.27;;
2201;SDS011;1107;48.654;9.250;2023-11-21T09:28:31;1.67;;;1.37;;
2201;SDS011;1107;48.654;9.250;2023-11-21T09:30:58;1.53;;;1.40;;
2201;SDS011;1107;48.654;9.250;2023-11-21T09:33:27;1.80;;;1.30;;
2201;SDS011;1107;48.654;9.250;2023-11-21T09:35:56;1.60;;;1.20;;
2201;SDS011;1107;48.654;9.250;2023-11-21T09:38:23;2.77;;;0.97;;
2201;SDS011;1107;48.654;9.250;2023-11-21T09:40:51;1.40;;;0.97;;
2201;SDS011;1107;48.654;9.250;2023-11-21T09:43:20;1.33;;;1.00;;
2201;SDS011;1107;48.654;9.250;2023-11-21T09:45:47;1.87;;;0.90;;
2201;SDS011;1107;48.654;9.250;2023-11-21T09:48:19;1.70;;;1.20;;
2201;SDS011;1107;48.654;9.250;2023-11-21T09:50:47;3.40;;;0.80;;
2201;SDS011;1107;48.654;9.250;2023-11-21T09:53:17;1.43;;;1.07;;
2201;SDS011;1107;48.654;9.250;2023-11-21T09:55:46;1.30;;;0.80;;
2201;SDS011;1107;48.654;9.250;2023-11-21T09:58:16;1.30;;;0.80;;
2201;SDS011;1107;48.654;9.250;2023-11-21T10:00:44;3.23;;;1.67;;
2201;SDS011;1107;48.654;9.250;2023-11-21T10:03:12;1.30;;;0.70;;
2201;SDS011;1107;48.654;9.250;2023-11-21T10:05:40;2.33;;;1.20;;
2201;SDS011;1107;48.654;9.250;2023-11-21T10:08:09;2.40;;;0.80;;
2201;SDS011;1107;48.654;9.250;2023-11-21T10:10:40;1.80;;;1.60;;
2201;SDS011;1107;48.654;9.250;2023-11-21T10:13:11;1.50;;;0.90;;
2201;SDS011;1107;48.654;9.250;2023-11-21T10:15:41;1.60;;;0.97;;
2201;SDS011;1107;48.654;9.250;2023-11-21T10:18:13;1.43;;;0.80;;
2201;SDS011;1107;48.654;9.250;2023-11-21T10:20:41;1.30;;;0.80;;
2201;SDS011;1107;48.654;9.250;2023-11-21T10:23:11;1.30;;;0.70;;
2201;SDS011;1107;48.654;9.250;2023-11-21T10:25:42;1.30;;;0.70;;
2201;SDS011;1107;48.654;9.250;2023-11-21T10:28:09;1.40;;;0.80;;
2201;SDS011;1107;48.654;9.250;2023-11-21T10:30:36;1.30;;;0.80;;
2201;SDS011;1107;48.654;9.250;2023-11-21T10:33:05;1.40;;;1.00;;
2201;SDS011;1107;48.654;9.250;2023-11-21T10:35:43;1.93;;;1.83;;
2201;SDS011;1107;48.654;9.250;2023-11-21T10:38:16;1.50;;;1.27;;
2201;SDS011;1107;48.654;9.250;2023-11-21T10:40:44;1.87;;;1.30;;
2201;SDS011;1107;48.654;9.250;2023-11-21T10:43:13;1.50;;;1.23;;
2201;SDS011;1107;48.654;9.250;2023-11-21T10:45:41;1.40;;;1.03;;
2201;SDS011;1107;48.654;9.250;2023-11-21T10:48:09;2.70;;;2.50;;
2201;SDS011;1107;48.654;9.250;2023-11-21T10:50:40;1.67;;;1.37;;
2201;SDS011;1107;48.654;9.250;2023-11-21T10:53:07;2.10;;;1.90;;
2201;SDS011;1107;48.654;9.250;2023-11-21T10:55:34;1.63;;;1.53;;
2201;SDS011;1107;48.654;9.250;2023-11-21T10:58:03;1.70;;;1.60;;
2201;SDS011;1107;48.654;9.250;2023-11-21T11:00:31;2.37;;;1.50;;
2201;SDS011;1107;48.654;9.250;2023-11-21T11:02:59;2.10;;;1.90;;
2201;SDS011;1107;48.654;9.250;2023-11-21T11:05:27;2.00;;;1.90;;
2201;SDS011;1107;48.654;9.250;2023-11-21T11:07:58;2.00;;;1.90;;
2201;SDS011;1107;48.654;9.250;2023-11-21T11:10:26;1.87;;;1.77;;
2201;SDS011;1107;48.654;9.250;2023-11-21T11:12:54;2.30;;;2.10;;
2201;SDS011;1107;48.654;9.250;2023-11-21T11:15:23;3.30;;;2.10;;
2201;SDS011;1107;48.654;9.250;2023-11-21T11:17:51;2.00;;;1.90;;
2201;SDS011;1107;48.654;9.250;2023-11-21T11:20:22;2.77;;;2.57;;
2201;SDS011;1107;48.654;9.250;2023-11-21T11:22:56;2.40;;;2.30;;
2201;SDS011;1107;48.654;9.250;2023-11-21T11:25:35;1.60;;;1.50;;
2201;SDS011;1107;48.654;9.250;2023-11-21T11:28:14;1.90;;;1.80;;
2201;SDS011;1107;48.654;9.250;2023-11-21T11:30:50;2.03;;;1.33;;
2201;SDS011;1107;48.654;9.250;2023-11-21T11:33:31;1.47;;;1.10;;
2201;SDS011;1107;48.654;9.250;2023-11-21T11:36:06;2.13;;;1.67;;
2201;SDS011;1107;48.654;9.250;2023-11-21T11:38:37;1.40;;;1.27;;
2201;SDS011;1107;48.654;9.250;2023-11-21T11:41:05;1.50;;;1.20;;
2201;SDS011;1107;48.654;9.250;2023-11-21T11:43:34;1.93;;;1.00;;
2201;SDS011;1107;48.654;9.250;2023-11-21T11:46:10;1.87;;;1.00;;
2201;SDS011;1107;48.654;9.250;2023-11-21T11:48:39;1.60;;;1.40;;
2201;SDS011;1107;48.654;9.250;2023-11-21T11:51:07;2.23;;;1.30;;
2201;SDS011;1107;48.654;9.250;2023-11-21T11:53:39;1.53;;;1.43;;
2201;SDS011;1107;48.654;9.250;2023-11-21T11:56:21;1.40;;;1.10;;
2201;SDS011;1107;48.654;9.250;2023-11-21T11:58:51;1.50;;;1.30;;
2201;SDS011;1107;48.654;9.250;2023-11-21T12:01:20;3.40;;;1.00;;
2201;SDS011;1107;48.654;9.250;2023-11-21T12:07:00;1.50;;;0.80;;
2201;SDS011;1107;48.654;9.250;2023-11-21T12:09:28;1.40;;;0.80;;
2201;SDS011;1107;48.654;9.250;2023-11-21T12:11:57;1.30;;;0.80;;
2201;SDS011;1107;48.654;9.250;2023-11-21T12:14:25;1.40;;;0.83;;
2201;SDS011;1107;48.654;9.250;2023-11-21T12:16:54;1.40;;;0.80;;
2201;SDS011;1107;48.654;9.250;2023-11-21T12:19:21;1.33;;;0.90;;
2201;SDS011;1107;48.654;9.250;2023-11-21T12:21:49;1.50;;;1.17;;
2201;SDS011;1107;48.654;9.250;2023-11-21T12:24:17;1.40;;;1.00;;
2201;SDS011;1107;48.654;9.250;2023-11-21T12:26:44;1.80;;;1.50;;
2201;SDS011;1107;48.654;9.250;2023-11-21T12:29:11;1.37;;;1.10;;
2201;SDS011;1107;48.654;9.250;2023-11-21T12:31:38;1.50;;;1.40;;
2201;SDS011;1107;48.654;9.250;2023-11-21T12:34:07;1.83;;;1.73;;
2201;SDS011;1107;48.654;9.250;2023-11-21T12:36:36;2.20;;;2.10;;
2201;SDS011;1107;48.654;9.250;2023-11-21T12:39:04;2.37;;;2.27;;
2201;SDS011;1107;48.654;9.250;2023-11-21T12:41:34;3.60;;;1.70;;
2201;SDS011;1107;48.654;9.250;2023-11-21T12:44:01;2.80;;;1.60;;
2201;SDS011;1107;48.654;9.250;2023-11-21T12:46:28;1.77;;;1.67;;
2201;SDS011;1107;48.654;9.250;2023-11-21T12:48:58;1.70;;;1.60;;
2201;SDS011;1107;48.654;9.250;2023-11-21T12:51:26;1.60;;;1.50;;
2201;SDS011;1107;48.654;9.250;2023-11-21T12:53:54;1.80;;;1.70;;
2201;SDS011;1107;48.654;9.250;2023-11-21T12:56:23;1.80;;;1.70;;
2201;SDS011;1107;48.654;9.250;2023-11-21T12:58:50;1.93;;;1.83;;
2201;SDS011;1107;48.654;9.250;2023-11-21T13:01:24;1.80;;;1.70;;
2201;SDS011;1107;48.654;9.250;2023-11-21T13:03:56;1.63;;;1.53;;
2201;SDS011;1107;48.654;9.250;2023-11-21T13:06:25;2.40;;;2.23;;
2201;SDS011;1107;48.654;9.250;2023-11-21T13:08:58;7.60;;;1.80;;
2201;SDS011;1107;48.654;9.250;2023-11-21T13:11:25;2.00;;;1.90;;
2201;SDS011;1107;48.654;9.250;2023-11-21T13:13:56;4.60;;;4.40;;
2201;SDS011;1107;48.654;9.250;2023-11-21T13:16:25;5.73;;;5.53;;
2201;SDS011;1107;48.654;9.250;2023-11-21T13:18:52;4.30;;;4.10;;
2201;SDS011;1107;48.654;9.250;2023-11-21T13:21:19;9.43;;;9.00;;
2201;SDS011;1107;48.654;9.250;2023-11-21T13:23:48;6.03;;;5.73;;
2201;SDS011;1107;48.654;9.250;2023-11-21T13:26:17;9.30;;;8.57;;
2201;SDS011;1107;48.654;9.250;2023-11-21T13:28:45;4.73;;;3.57;;
2201;SDS011;1107;48.654;9.250;2023-11-21T13:31:12;3.80;;;2.77;;
2201;SDS011;1107;48.654;9.250;2023-11-21T13:33:50;2.80;;;2.60;;
2201;SDS011;1107;48.654;9.250;2023-11-21T13:36:21;2.77;;;2.57;;
2201;SDS011;1107;48.654;9.250;2023-11-21T13:38:50;3.20;;;3.00;;
2201;SDS011;1107;48.654;9.250;2023-11-21T13:41:18;2.77;;;2.57;;
2201;SDS011;1107;48.654;9.250;2023-11-21T13:43:47;3.23;;;2.90;;
2201;SDS011;1107;48.654;9.250;2023-11-21T13:46:22;4.03;;;3.47;;
2201;SDS011;1107;48.654;9.250;2023-11-21T13:48:49;3.60;;;3.40;;
2201;SDS011;1107;48.654;9.250;2023-11-21T13:51:20;3.53;;;3.33;;
2201;SDS011;1107;48.654;9.250;2023-11-21T13:53:57;3.77;;;3.47;;
2201;SDS011;1107;48.654;9.250;2023-11-21T13:56:25;3.13;;;2.93;;
2201;SDS011;1107;48.654;9.250;2023-11-21T13:58:54;2.73;;;2.53;;
2201;SDS011;1107;48.654;9.250;2023-11-21T14:01:21;3.57;;;2.43;;
2201;SDS011;1107;48.654;9.250;2023-11-21T14:04:07;2.40;;;2.20;;
2201;SDS011;1107;48.654;9.250;2023-11-21T14:06:44;2.50;;;2.40;;
2201;SDS011;1107;48.654;9.250;2023-11-21T14:09:16;2.87;;;2.67;;
2201;SDS011;1107;48.654;9.250;2023-11-21T14:11:48;3.20;;;3.00;;
2201;SDS011;1107;48.654;9.250;2023-11-21T14:14:17;3.23;;;3.03;;
2201;SDS011;1107;48.654;9.250;2023-11-21T14:16:44;25.63;;;3.90;;
2201;SDS011;1107;48.654;9.250;2023-11-21T14:19:11;2.33;;;2.13;;
2201;SDS011;1107;48.654;9.250;2023-11-21T14:21:42;1.80;;;1.70;;
2201;SDS011;1107;48.654;9.250;2023-11-21T14:24:10;1.70;;;1.60;;
2201;SDS011;1107;48.654;9.250;2023-11-21T14:26:39;1.90;;;1.70;;
2201;SDS011;1107;48.654;9.250;2023-11-21T14:29:07;1.27;;;0.80;;
2201;SDS011;1107;48.654;9.250;2023-11-21T14:31:37;1.90;;;1.00;;
2201;SDS011;1107;48.654;9.250;2023-11-21T14:34:04;1.30;;;1.07;;
2201;SDS011;1107;48.654;9.250;2023-11-21T14:36:32;3.17;;;2.97;;
2201;SDS011;1107;48.654;9.250;2023-11-21T14:38:59;1.50;;;1.40;;
2201;SDS011;1107;48.654;9.250;2023-11-21T14:41:26;1.57;;;1.20;;
2201;SDS011;1107;48.654;9.250;2023-11-21T14:43:55;1.40;;;1.30;;
2201;SDS011;1107;48.654;9.250;2023-11-21T14:46:22;1.50;;;1.40;;
2201;SDS011;1107;48.654;9.250;2023-11-21T14:48:50;2.00;;;1.90;;
2201;SDS011;1107;48.654;9.250;2023-11-21T14:51:25;2.43;;;1.63;;
2201;SDS011;1107;48.654;9.250;2023-11-21T14:53:52;1.77;;;1.67;;
2201;SDS011;1107;48.654;9.250;2023-11-21T14:56:19;2.40;;;2.20;;
2201;SDS011;1107;48.654;9.250;2023-11-21T14:58:52;2.37;;;2.27;;
2201;SDS011;1107;48.654;9.250;2023-11-21T15:01:19;2.40;;;2.17;;
2201;SDS011;1107;48.654;9.250;2023-11-21T15:03:58;2.97;;;2.77;;
2201;SDS011;1107;48.654;9.250;2023-11-21T15:06:24;3.73;;;3.53;;
2201;SDS011;1107;48.654;9.250;2023-11-21T15:08:55;4.93;;;4.53;;
2201;SDS011;1107;48.654;9.250;2023-11-21T15:11:44;8.10;;;7.70;;
2201;SDS011;1107;48.654;9.250;2023-11-21T15:14:12;6.07;;;5.77;;
2201;SDS011;1107;48.654;9.250;2023-11-21T15:16:47;5.77;;;5.47;;
2201;SDS011;1107;48.654;9.250;2023-11-21T15:19:18;4.80;;;4.60;;
2201;SDS011;1107;48.654;9.250;2023-11-21T15:21:50;6.87;;;6.57;;
2201;SDS011;1107;48.654;9.250;2023-11-21T15:24:17;6.30;;;5.77;;
2201;SDS011;1107;48.654;9.250;2023-11-21T15:26:44;5.47;;;5.07;;